createdAt,value
2023-02-26T04:13:02.845Z,99834.91
2023-02-26T05:17:00.704Z,99876.28
2023-02-26T05:37:07.786Z,99688.72
2023-02-26T05:55:38.613Z,99805.97
2023-02-26T06:00:31.795Z,99870.56
2023-02-26T06:05:25.082Z,99868.44
2023-02-26T06:10:19.501Z,99868.78
2023-02-26T06:15:19.113Z,99884.84
2023-02-26T06:20:13.628Z,99819.47
2023-02-26T06:25:07.958Z,99878.63
2023-02-26T06:30:01.267Z,99889.47
2023-02-26T06:34:55.983Z,99814.84
2023-02-26T06:39:49.200Z,99872.22
2023-02-26T06:44:42.486Z,99875.00
2023-02-26T06:49:35.655Z,99898.22
2023-02-26T06:54:30.307Z,99884.41
2023-02-26T06:59:23.556Z,99919.75
2023-02-26T07:04:17.404Z,99908.38
2023-02-26T07:09:11.853Z,99885.72
2023-02-26T07:14:06.527Z,99909.03
2023-02-26T07:18:59.681Z,99861.84
2023-02-26T07:23:53.066Z,99818.81
2023-02-26T07:28:48.586Z,99881.41
2023-02-26T07:33:43.768Z,99903.88
2023-02-26T07:38:37.063Z,99872.16
2023-02-26T07:43:30.468Z,99873.78
2023-02-26T07:48:26.590Z,99905.97
2023-02-26T07:53:24.096Z,99832.06
2023-02-26T07:58:17.391Z,99849.41
2023-02-26T08:03:10.674Z,99848.59
2023-02-26T08:08:04.087Z,99823.56
2023-02-26T08:12:58.808Z,99907.53
2023-02-26T08:17:55.161Z,99818.03
2023-02-26T08:22:48.627Z,99875.31
2023-02-26T08:27:44.342Z,99833.59
2023-02-26T08:32:40.050Z,99930.19
2023-02-26T08:37:33.833Z,99930.09
2023-02-26T08:42:27.110Z,99834.31
2023-02-26T08:47:28.457Z,99927.97
2023-02-26T08:52:25.274Z,99829.84
2023-02-26T08:57:18.751Z,99896.25
2023-02-26T09:02:14.095Z,99915.78
2023-02-26T09:07:07.595Z,99919.28
2023-02-26T09:12:04.801Z,99870.34
2023-02-26T09:16:58.205Z,99902.63
2023-02-26T09:21:54.475Z,99861.38
2023-02-26T09:26:47.658Z,99883.16
2023-02-26T09:31:42.505Z,99841.97
2023-02-26T09:36:37.657Z,99848.81
2023-02-26T09:41:34.367Z,99897.31
2023-02-26T09:46:35.312Z,99926.34
2023-02-26T09:51:31.614Z,99936.38
2023-02-26T09:56:27.973Z,99936.19
2023-02-26T10:01:29.880Z,99918.69
2023-02-26T10:06:28.029Z,99911.50
2023-02-26T10:11:31.197Z,99937.69
2023-02-26T10:16:29.051Z,99909.22
2023-02-26T10:21:27.717Z,99936.97
2023-02-26T10:26:25.065Z,99914.66
2023-02-26T10:31:26.682Z,99908.13
2023-02-26T10:36:26.161Z,99936.66
2023-02-26T10:41:26.013Z,99823.19
2023-02-26T10:46:32.656Z,99890.06
2023-02-26T10:51:32.588Z,99920.06
2023-02-26T10:56:31.613Z,99875.56
2023-02-26T11:01:27.784Z,99896.72
2023-02-26T11:06:24.176Z,99883.25
2023-02-26T11:11:42.097Z,99883.59
2023-02-26T11:16:43.834Z,99902.00
2023-02-26T11:22:00.093Z,99865.19
2023-02-26T11:27:04.343Z,99909.19
2023-02-26T11:31:58.426Z,99911.31
2023-02-26T11:36:53.792Z,99915.44
2023-02-26T11:42:02.386Z,99922.63
2023-02-26T11:47:10.098Z,99927.13
2023-02-26T11:52:21.347Z,99899.72
2023-02-26T11:57:20.412Z,99905.06
2023-02-26T12:02:21.862Z,99772.44
2023-02-26T12:07:18.773Z,99921.38
2023-02-26T12:12:27.151Z,99846.13
2023-02-26T12:17:36.367Z,99872.28
2023-02-26T12:22:43.204Z,99860.84
2023-02-26T12:27:55.333Z,99846.13
2023-02-26T12:33:07.330Z,99916.25
2023-02-26T12:38:10.332Z,99914.41
2023-02-26T12:43:13.647Z,99926.25
2023-02-26T12:48:38.929Z,99889.38
2023-02-26T12:54:01.247Z,99934.06
2023-02-26T12:59:18.193Z,99922.31
2023-02-26T13:04:43.983Z,99911.22
2023-02-26T13:09:53.061Z,99910.34
2023-02-26T13:14:54.795Z,99874.22
2023-02-26T13:19:52.625Z,99925.31
2023-02-26T13:24:53.973Z,99944.03
2023-02-26T13:29:58.054Z,99857.34
2023-02-26T13:34:58.837Z,99953.97
2023-02-26T13:40:07.404Z,99885.72
2023-02-26T13:45:21.793Z,99898.16
2023-02-26T13:50:31.146Z,99953.28
2023-02-26T13:55:42.797Z,99939.66
2023-02-26T14:00:48.547Z,99947.41
2023-02-26T14:06:11.916Z,99917.59
2023-02-26T14:11:06.180Z,99935.56
2023-02-26T14:16:02.552Z,99946.41
2023-02-26T14:21:34.138Z,99909.47
2023-02-26T14:26:33.695Z,99861.81
2023-02-26T14:31:28.255Z,99863.66
2023-02-26T14:36:29.827Z,99918.84
2023-02-26T14:41:32.938Z,99887.31
2023-02-26T14:46:26.980Z,99874.75
2023-02-26T14:51:30.349Z,99910.38
2023-02-26T14:56:35.641Z,99925.25
2023-02-26T15:01:44.751Z,99924.88
2023-02-26T15:06:55.777Z,99954.41
2023-02-26T15:12:10.870Z,99945.63
2023-02-26T15:17:16.681Z,99863.31
2023-02-26T15:22:24.599Z,99868.94
2023-02-26T15:27:21.651Z,99942.25
2023-02-26T15:32:23.055Z,99924.25
2023-02-26T15:37:25.426Z,99941.25
2023-02-26T15:42:30.056Z,99928.50
2023-02-26T15:47:23.924Z,100014.47
2023-02-26T15:52:21.886Z,99946.66
2023-02-26T15:57:17.259Z,100046.19
2023-02-26T16:02:15.762Z,100040.31
2023-02-26T16:07:12.261Z,100036.78
2023-02-26T16:12:11.011Z,99917.16
2023-02-26T16:22:51.337Z,100056.94
2023-02-26T16:27:55.495Z,100078.41
2023-02-26T16:32:56.138Z,99936.00
2023-02-26T16:37:57.986Z,100082.44
2023-02-26T16:43:06.490Z,100027.50
2023-02-26T16:48:01.396Z,100033.09
2023-02-26T16:53:05.672Z,100104.88
2023-02-26T16:58:06.165Z,100113.78
2023-02-26T17:03:14.103Z,99940.81
2023-02-26T17:08:16.043Z,99957.44
2023-02-26T17:13:16.828Z,99943.44
2023-02-26T17:18:10.531Z,100017.66
2023-02-26T17:23:11.776Z,100036.59
2023-02-26T17:28:07.718Z,99947.16
2023-02-26T17:33:05.198Z,99985.19
2023-02-26T17:38:02.828Z,100052.88
2023-02-26T17:43:03.896Z,99949.47
2023-02-26T17:48:01.404Z,100010.03
2023-02-26T17:52:57.266Z,100092.53
2023-02-26T17:57:52.905Z,100141.78
2023-02-26T18:02:47.102Z,100123.16
2023-02-26T18:07:45.996Z,100151.00
2023-02-26T18:12:41.540Z,100172.91
2023-02-26T18:23:14.215Z,100013.91
2023-02-26T18:28:24.282Z,100135.00
2023-02-26T19:37:27.358Z,100229.28
2023-02-26T19:43:31.180Z,100049.41
2023-02-26T19:49:34.362Z,100154.91
2023-02-26T20:01:47.709Z,100037.59
2023-02-26T20:46:18.228Z,100114.88
2023-02-26T20:57:31.600Z,100178.44
2023-02-26T21:15:13.321Z,100191.91
2023-02-26T21:20:18.782Z,100142.50
2023-02-26T21:25:15.625Z,100140.84
2023-02-26T21:30:27.241Z,100303.88
2023-02-26T21:35:25.140Z,100245.72
2023-02-26T21:40:19.576Z,100352.13
2023-02-26T21:45:17.971Z,100204.63
2023-02-26T21:50:27.518Z,100205.81
2023-02-26T21:55:45.326Z,100236.13
2023-02-26T22:00:46.287Z,100444.09
2023-02-26T22:06:26.883Z,100466.66
2023-02-26T22:11:42.381Z,100481.47
2023-02-26T22:16:38.024Z,100416.13
2023-02-26T22:21:35.955Z,100465.88
2023-02-26T22:26:29.638Z,100481.56
2023-02-26T22:31:25.029Z,100518.59
2023-02-26T22:36:20.939Z,100528.31
2023-02-26T22:41:14.454Z,100526.94
2023-02-26T22:46:12.782Z,100540.25
2023-02-26T22:51:10.874Z,100476.19
2023-02-26T22:56:07.353Z,100375.22
2023-02-26T23:01:09.474Z,100348.22
2023-02-26T23:06:04.422Z,100476.34
2023-02-26T23:11:06.931Z,100384.19
2023-02-26T23:16:06.674Z,100340.63
2023-02-26T23:21:10.373Z,100336.66
2023-02-26T23:26:26.520Z,100566.94
2023-02-26T23:31:29.471Z,100365.88
2023-02-26T23:36:40.196Z,100459.03
2023-02-26T23:41:38.666Z,100482.53
2023-02-26T23:46:32.182Z,100525.59
2023-02-26T23:51:28.693Z,100450.66
2023-02-26T23:56:30.561Z,100499.50
